Time;durP1;ratioP1;P1;durP2;ratioP2;P2;SDS_P1;SDS_P2;PMS_P1;PMS_P2;Temp;Humidity;BMP_temperature;BMP_pressure;BME280_temperature;BME280_humidity;BME280_pressure;Samples;Min_cycle;Max_cycle;Signal;HPM_P1;HPM_P2
2024/02/29 00:00:11;;;;;;;;;;;2.50;99.90;;;-146.41;100.00;57768.22;5041054;28;1463;-67
2024/02/29 00:02:39;;;;;;;;;;;2.50;99.90;;;-146.41;100.00;57768.22;5040545;28;1534;-67
2024/02/29 00:05:07;;;;;;;;;;;2.40;99.90;;;-146.41;100.00;57768.22;5041312;28;1495;-67
2024/02/29 00:07:33;;;;;;;;;;;2.40;99.90;;;-146.41;100.00;57768.22;5042321;28;1589;-67
2024/02/29 00:10:00;;;;;;;;;;;2.30;99.90;;;-146.41;100.00;57768.22;5039050;28;1910;-67
2024/02/29 00:12:27;;;;;;;;;;;2.30;99.90;;;-146.41;100.00;57768.22;5043636;28;1329;-67
2024/02/29 00:14:54;;;;;;;;;;;2.40;99.90;;;-146.41;100.00;57768.22;5042700;28;1222;-67
2024/02/29 00:17:21;;;;;;;;;;;2.30;99.90;;;-146.41;100.00;57768.22;5041256;28;1036;-67
2024/02/29 00:19:48;;;;;;;;;;;2.20;99.90;;;-146.41;100.00;57768.22;5044599;28;1277;-67
2024/02/29 00:22:15;;;;;;;;;;;2.10;99.90;;;-146.41;100.00;57768.22;5041234;28;2359;-67
2024/02/29 00:24:41;;;;;;;;;;;2.10;99.90;;;-146.41;100.00;57768.22;5042723;28;1250;-68
2024/02/29 00:27:08;;;;;;;;;;;2.10;99.90;;;-146.41;100.00;57768.22;5041201;28;1176;-67
2024/02/29 00:29:35;;;;;;;;;;;2.10;99.90;;;-146.41;100.00;57768.22;5040713;28;1979;-67
2024/02/29 00:32:02;;;;;;;;;;;2.00;99.90;;;-146.41;100.00;57768.22;5040074;28;1488;-67
2024/02/29 00:34:29;;;;;;;;;;;2.00;99.90;;;-146.41;100.00;57768.22;5042838;28;1211;-67
2024/02/29 00:36:56;;;;;;;;;;;2.10;99.90;;;-146.41;100.00;57768.22;5041766;28;1298;-67
2024/02/29 00:39:23;;;;;;;;;;;2.10;99.90;;;-146.41;100.00;57768.22;5037404;28;1139;-67
2024/02/29 00:41:50;;;;;;;;;;;2.20;99.90;;;-146.41;100.00;57768.22;5041328;28;1252;-67
2024/02/29 00:44:16;;;;;;;;;;;2.20;99.90;;;-146.41;100.00;57768.22;5039272;28;1243;-67
2024/02/29 00:46:43;;;;;;;;;;;2.10;99.90;;;-146.41;100.00;57768.22;5039207;28;1047;-67
2024/02/29 00:49:13;;;;;;;;;;;2.10;99.90;;;-146.41;100.00;57768.22;5037875;28;1906;-68
2024/02/29 00:51:41;;;;;;;;;;;2.00;99.90;;;-146.41;100.00;57768.22;5040499;28;1571;-67
2024/02/29 00:54:08;;;;;;;;;;;1.90;99.90;;;-146.41;100.00;57768.22;5042912;28;1183;-67
2024/02/29 00:56:35;;;;;;;;;;;1.90;99.90;;;-146.41;100.00;57768.22;5045545;28;1071;-68
2024/02/29 00:59:02;;;;;;;;;;;1.90;99.90;;;-146.41;100.00;57768.22;5035947;28;1202;-67
2024/02/29 01:01:29;;;;;;;;;;;1.80;99.90;;;-146.41;100.00;57768.22;5039035;28;1391;-67
2024/02/29 01:03:55;;;;;;;;;;;1.80;99.90;;;-146.41;100.00;57768.22;5037725;28;1227;-67
2024/02/29 01:06:22;;;;;;;;;;;1.70;99.90;;;-146.41;100.00;57768.22;5038925;28;1211;-67
2024/02/29 01:08:49;;;;;;;;;;;1.70;99.90;;;-146.41;100.00;57768.22;5040232;28;1985;-67
2024/02/29 01:11:16;;;;;;;;;;;1.80;99.90;;;-146.41;100.00;57768.22;5042746;28;1363;-67
2024/02/29 01:13:43;;;;;;;;;;;1.80;99.90;;;-146.41;100.00;57768.22;5038965;28;1188;-67
2024/02/29 01:16:10;;;;;;;;;;;1.90;99.90;;;-146.41;100.00;57768.22;5039022;28;1282;-67
2024/02/29 01:18:37;;;;;;;;;;;2.00;99.90;;;-146.41;100.00;57768.22;5040738;28;1025;-67
2024/02/29 01:21:06;;;;;;;;;;;1.90;99.90;;;-146.41;100.00;57768.22;5038079;28;1422;-67
2024/02/29 01:23:33;;;;;;;;;;;1.80;99.90;;;-146.41;100.00;57768.22;5038977;28;1483;-67
2024/02/29 01:26:00;;;;;;;;;;;1.70;99.90;;;-146.41;100.00;57768.22;5040211;28;1210;-67
2024/02/29 01:28:26;;;;;;;;;;;1.70;99.90;;;-146.41;100.00;57768.22;5039599;28;1222;-67
2024/02/29 01:30:53;;;;;;;;;;;1.60;99.90;;;-146.41;100.00;57768.22;5038178;28;1989;-67
2024/02/29 01:33:20;;;;;;;;;;;1.70;99.90;;;-146.41;100.00;57768.22;5039485;28;1214;-67
2024/02/29 01:35:47;;;;;;;;;;;1.70;99.90;;;-146.41;100.00;57768.22;5040145;28;1207;-67
2024/02/29 01:38:14;;;;;;;;;;;1.80;99.90;;;-146.41;100.00;57768.22;5041589;28;1262;-67
2024/02/29 01:40:45;;;;;;;;;;;1.90;99.90;;;-146.41;100.00;57768.22;5037345;28;1300;-67
2024/02/29 01:43:12;;;;;;;;;;;1.90;99.90;;;-146.41;100.00;57768.22;5036663;28;1168;-67
2024/02/29 01:45:39;;;;;;;;;;;1.80;99.90;;;-146.41;100.00;57768.22;5042277;28;1168;-67
2024/02/29 01:48:07;;;;;;;;;;;1.70;99.90;;;-146.41;100.00;57768.22;5039372;28;1601;-67
2024/02/29 01:50:35;;;;;;;;;;;1.80;99.90;;;-146.41;100.00;57768.22;5037335;28;1983;-67
2024/02/29 01:53:02;;;;;;;;;;;1.80;99.90;;;-146.41;100.00;57768.22;5039476;28;1041;-68
2024/02/29 01:55:29;;;;;;;;;;;1.80;99.90;;;-146.41;100.00;57768.22;5043519;28;1357;-68
2024/02/29 01:57:55;;;;;;;;;;;1.80;99.90;;;-146.41;100.00;57768.22;5042474;28;1777;-67
2024/02/29 02:00:22;;;;;;;;;;;1.80;99.90;;;-146.41;100.00;57768.22;5037887;28;1279;-67
2024/02/29 02:02:49;;;;;;;;;;;1.80;99.90;;;-146.41;100.00;57768.22;5040238;28;1223;-67
2024/02/29 02:05:16;;;;;;;;;;;1.80;99.90;;;-146.41;100.00;57768.22;5054691;28;1245;-67
2024/02/29 02:07:45;;;;;;;;;;;1.80;99.90;;;-146.41;100.00;57768.22;5039913;28;1039;-67
2024/02/29 02:10:12;;;;;;;;;;;1.80;99.90;;;-146.41;100.00;57768.22;5039986;28;1987;-67
2024/02/29 02:12:39;;;;;;;;;;;1.80;99.90;;;-146.41;100.00;57768.22;5035070;28;1074;-66
2024/02/29 02:15:06;;;;;;;;;;;1.80;99.90;;;-146.41;100.00;57768.22;5039737;28;1498;-67
2024/02/29 02:17:33;;;;;;;;;;;1.90;99.90;;;-146.41;100.00;57768.22;5039854;28;1383;-67
2024/02/29 02:20:01;;;;;;;;;;;1.90;99.90;;;-146.41;100.00;57768.22;5038375;28;1323;-67
2024/02/29 02:22:28;;;;;;;;;;;2.00;99.90;;;-146.41;100.00;57768.22;5037773;28;1213;-67
2024/02/29 02:24:57;;;;;;;;;;;2.20;99.90;;;-146.41;100.00;57768.22;5040871;28;1202;-67
2024/02/29 02:27:23;;;;;;;;;;;2.20;99.90;;;-146.41;100.00;57768.22;5032680;28;1078;-67
2024/02/29 02:29:50;;;;;;;;;;;2.30;99.90;;;-146.41;100.00;57768.22;5039569;28;1906;-67
2024/02/29 02:32:17;;;;;;;;;;;2.30;99.90;;;-146.41;100.00;57768.22;5036973;28;1268;-67
2024/02/29 02:34:44;;;;;;;;;;;2.40;99.90;;;-146.41;100.00;57768.22;5040200;28;1319;-67
2024/02/29 02:37:11;;;;;;;;;;;2.40;99.90;;;-146.41;100.00;57768.22;5039748;28;1045;-67
2024/02/29 02:39:38;;;;;;;;;;;2.50;99.90;;;-146.41;100.00;57768.22;5037399;28;1099;-67
2024/02/29 02:42:05;;;;;;;;;;;2.50;99.90;;;-146.41;100.00;57768.22;5037958;28;1340;-67
2024/02/29 02:44:32;;;;;;;;;;;2.30;99.90;;;-146.41;100.00;57768.22;5035251;28;1255;-67
2024/02/29 02:46:58;;;;;;;;;;;2.20;99.90;;;-146.41;100.00;57768.22;5037550;28;1118;-67
2024/02/29 02:49:25;;;;;;;;;;;2.10;99.90;;;-146.41;100.00;57768.22;5053346;28;1906;-67
2024/02/29 02:51:52;;;;;;;;;;;2.20;99.90;;;-146.41;100.00;57768.22;5036852;28;1379;-68
2024/02/29 02:54:19;;;;;;;;;;;2.20;99.90;;;-146.41;100.00;57768.22;5035833;28;1223;-68
2024/02/29 02:56:45;;;;;;;;;;;2.30;99.90;;;-146.41;100.00;57768.22;5039646;28;1078;-67
2024/02/29 02:59:12;;;;;;;;;;;2.30;99.90;;;-146.41;100.00;57768.22;5038159;28;1066;-67
2024/02/29 03:01:39;;;;;;;;;;;2.30;99.90;;;-146.41;100.00;57768.22;5034977;28;1283;-67
2024/02/29 03:04:06;;;;;;;;;;;2.30;99.90;;;-146.41;100.00;57768.22;5038310;28;1220;-67
2024/02/29 03:06:33;;;;;;;;;;;2.20;99.90;;;-146.41;100.00;57768.22;5044854;28;1130;-67
2024/02/29 03:09:01;;;;;;;;;;;2.10;99.90;;;-146.41;100.00;57768.22;5037064;28;1095;-67
2024/02/29 03:11:28;;;;;;;;;;;2.00;99.90;;;-146.41;100.00;57768.22;5038072;28;2043;-67
2024/02/29 03:13:55;;;;;;;;;;;1.90;99.90;;;-146.41;100.00;57768.22;5037387;28;1210;-67
2024/02/29 03:16:23;;;;;;;;;;;1.70;99.90;;;-146.41;100.00;57768.22;5038478;28;1212;-67
2024/02/29 03:18:50;;;;;;;;;;;1.50;99.90;;;-146.41;100.00;57768.22;5039436;28;1076;-67
2024/02/29 03:21:17;;;;;;;;;;;1.30;99.90;;;-146.41;100.00;57768.22;5040441;28;1363;-67
2024/02/29 03:23:44;;;;;;;;;;;1.10;99.90;;;-146.41;100.00;57768.22;5033043;28;1315;-67
2024/02/29 03:26:10;;;;;;;;;;;0.90;99.90;;;-146.41;100.00;57768.22;5034570;28;1300;-67
2024/02/29 03:28:37;;;;;;;;;;;0.90;99.90;;;-146.41;100.00;57768.22;5036785;28;1111;-67
2024/02/29 03:31:09;;;;;;;;;;;0.80;99.90;;;-146.41;100.00;57768.22;5036106;28;1937;-67
2024/02/29 03:33:36;;;;;;;;;;;0.70;99.90;;;-146.41;100.00;57768.22;5034909;28;1153;-67
2024/02/29 03:36:03;;;;;;;;;;;0.70;99.90;;;-146.41;100.00;57768.22;5043776;28;1233;-67
2024/02/29 03:38:30;;;;;;;;;;;0.60;99.90;;;-146.41;100.00;57768.22;5038660;28;1224;-67
2024/02/29 03:40:57;;;;;;;;;;;0.60;99.90;;;-146.41;100.00;57768.22;5042207;28;1398;-67
2024/02/29 03:43:24;;;;;;;;;;;0.50;99.90;;;-146.41;100.00;57768.22;5041016;28;1209;-67
2024/02/29 03:45:50;;;;;;;;;;;0.50;99.90;;;-146.41;100.00;57768.22;5040857;28;1094;-67
2024/02/29 03:48:17;;;;;;;;;;;0.50;99.90;;;-146.41;100.00;57768.22;5040973;28;1133;-67
2024/02/29 03:50:44;;;;;;;;;;;0.40;99.90;;;-146.41;100.00;57768.22;5041412;28;1930;-67
2024/02/29 03:53:11;;;;;;;;;;;0.30;99.90;;;-146.41;100.00;57768.22;5041766;28;1228;-67
2024/02/29 03:55:38;;;;;;;;;;;0.30;99.90;;;-146.41;100.00;57768.22;5042132;28;1453;-67
2024/02/29 03:58:04;;;;;;;;;;;0.30;99.90;;;-146.41;100.00;57768.22;5042315;28;1108;-67
2024/02/29 04:00:31;;;;;;;;;;;0.30;99.90;;;-146.41;100.00;57768.22;5044029;28;1260;-67
2024/02/29 04:02:58;;;;;;;;;;;0.40;99.90;;;-146.41;100.00;57768.22;5044810;28;1083;-67
2024/02/29 04:05:26;;;;;;;;;;;0.50;99.90;;;-146.41;100.00;57768.22;5040835;28;1184;-67
2024/02/29 04:08:00;;;;;;;;;;;0.70;99.90;;;-146.41;100.00;57768.22;5042422;28;1082;-67
2024/02/29 04:10:30;;;;;;;;;;;0.90;99.90;;;-146.41;100.00;57768.22;5043492;28;1964;-67
2024/02/29 04:12:57;;;;;;;;;;;0.90;99.90;;;-146.41;100.00;57768.22;5041216;28;1133;-67
2024/02/29 04:15:24;;;;;;;;;;;0.70;99.90;;;-146.41;100.00;57768.22;5043073;28;1213;-67
2024/02/29 04:17:51;;;;;;;;;;;0.50;99.90;;;-146.41;100.00;57768.22;5029466;28;1027;-67
2024/02/29 04:20:18;;;;;;;;;;;0.50;99.90;;;-146.41;100.00;57768.22;5043047;28;1370;-67
2024/02/29 04:22:45;;;;;;;;;;;0.50;99.90;;;-146.41;100.00;57768.22;5037810;28;1022;-67
2024/02/29 04:25:12;;;;;;;;;;;0.50;99.90;;;-146.41;100.00;57768.22;5054408;28;1088;-67
2024/02/29 04:27:39;;;;;;;;;;;0.60;99.90;;;-146.41;100.00;57768.22;5042774;28;1307;-67
2024/02/29 04:30:08;;;;;;;;;;;0.70;99.90;;;-146.41;100.00;57768.22;5042872;28;1989;-67
2024/02/29 04:32:38;;;;;;;;;;;0.70;99.90;;;-146.41;100.00;57768.22;5038763;28;998;-67
2024/02/29 04:35:05;;;;;;;;;;;0.80;99.90;;;-146.41;100.00;57768.22;5040778;28;1274;-67
2024/02/29 04:37:32;;;;;;;;;;;0.90;99.90;;;-146.41;100.00;57768.22;5037116;28;2169;-67
2024/02/29 04:39:59;;;;;;;;;;;0.90;99.90;;;-146.41;100.00;57768.22;5040743;28;1192;-67
2024/02/29 04:42:26;;;;;;;;;;;1.00;99.90;;;-146.41;100.00;57768.22;5044067;28;1198;-67
2024/02/29 04:44:53;;;;;;;;;;;1.00;99.90;;;-146.41;100.00;57768.22;5039427;28;1109;-67
2024/02/29 04:47:20;;;;;;;;;;;0.70;99.90;;;-146.41;100.00;57768.22;5040867;28;1400;-67
2024/02/29 04:49:47;;;;;;;;;;;0.60;99.90;;;-146.41;100.00;57768.22;5040056;28;1902;-67
2024/02/29 04:52:14;;;;;;;;;;;0.60;99.90;;;-146.41;100.00;57768.22;5041983;28;1248;-67
2024/02/29 04:54:41;;;;;;;;;;;0.70;99.90;;;-146.41;100.00;57768.22;5038348;28;1153;-67
2024/02/29 04:57:08;;;;;;;;;;;0.80;99.90;;;-146.41;100.00;57768.22;5040400;28;1003;-67
2024/02/29 04:59:35;;;;;;;;;;;0.90;99.90;;;-146.41;100.00;57768.22;5041014;28;1018;-67
2024/02/29 05:02:02;;;;;;;;;;;0.90;99.90;;;-146.41;100.00;57768.22;5042139;28;1443;-66
2024/02/29 05:04:32;;;;;;;;;;;0.80;99.90;;;-146.41;100.00;57768.22;5038235;28;1251;-66
2024/02/29 05:06:59;;;;;;;;;;;0.60;99.90;;;-146.41;100.00;57768.22;5039915;28;1122;-67
2024/02/29 05:09:26;;;;;;;;;;;0.30;99.90;;;-146.41;100.00;57768.22;5035731;28;1209;-67
2024/02/29 05:11:53;;;;;;;;;;;0.20;99.90;;;-146.41;100.00;57768.22;5039443;28;1906;-67
2024/02/29 05:14:20;;;;;;;;;;;0.00;99.90;;;-146.41;100.00;57768.22;5040486;28;1198;-67
2024/02/29 05:16:47;;;;;;;;;;;0.00;99.90;;;-146.41;100.00;57768.22;5037218;28;1125;-67
2024/02/29 05:19:14;;;;;;;;;;;-0.10;99.90;;;-146.41;100.00;57768.22;5042426;28;1169;-67
2024/02/29 05:21:43;;;;;;;;;;;-0.20;99.90;;;-146.41;100.00;57768.22;5038303;28;1264;-67
2024/02/29 05:24:10;;;;;;;;;;;-0.10;99.90;;;-146.41;100.00;57768.22;5037854;28;1356;-67
2024/02/29 05:26:37;;;;;;;;;;;0.10;99.90;;;-146.41;100.00;57768.22;5036681;28;1031;-67
2024/02/29 05:29:04;;;;;;;;;;;0.20;99.90;;;-146.41;100.00;57768.22;5041633;28;1213;-67
2024/02/29 05:31:30;;;;;;;;;;;0.30;99.90;;;-146.41;100.00;57768.22;5041872;28;1902;-67
2024/02/29 05:33:57;;;;;;;;;;;0.30;99.90;;;-146.41;100.00;57768.22;5035276;28;1355;-67
2024/02/29 05:36:24;;;;;;;;;;;0.40;99.90;;;-146.41;100.00;57768.22;5036363;28;1431;-67
2024/02/29 05:38:51;;;;;;;;;;;0.50;99.90;;;-146.41;100.00;57768.22;5038886;28;1197;-67
2024/02/29 05:41:18;;;;;;;;;;;0.40;99.90;;;-146.41;100.00;57768.22;5038323;28;1288;-67
2024/02/29 05:43:46;;;;;;;;;;;0.40;99.90;;;-146.41;100.00;57768.22;5037341;28;1042;-67
2024/02/29 05:46:14;;;;;;;;;;;0.20;99.90;;;-146.41;100.00;57768.22;5039470;28;1339;-67
2024/02/29 05:48:41;;;;;;;;;;;0.30;99.90;;;-146.41;100.00;57768.22;5037943;28;1162;-67
2024/02/29 05:51:08;;;;;;;;;;;0.30;99.90;;;-146.41;100.00;57768.22;5037494;28;1902;-67
2024/02/29 05:53:35;;;;;;;;;;;0.30;99.90;;;-146.41;100.00;57768.22;5040114;28;1034;-67
2024/02/29 05:56:02;;;;;;;;;;;0.30;99.90;;;-146.41;100.00;57768.22;5023843;28;1072;-67
2024/02/29 05:58:30;;;;;;;;;;;0.40;99.90;;;-146.41;100.00;57768.22;5037537;28;1196;-67
2024/02/29 06:00:57;;;;;;;;;;;0.30;99.90;;;-146.41;100.00;57768.22;5038486;28;1372;-67
2024/02/29 06:03:24;;;;;;;;;;;0.30;99.90;;;-146.41;100.00;57768.22;5040645;28;1299;-66
2024/02/29 06:05:51;;;;;;;;;;;0.20;99.90;;;-146.41;100.00;57768.22;5038881;28;1245;-67
2024/02/29 06:08:18;;;;;;;;;;;0.20;99.90;;;-146.41;100.00;57768.22;5042154;28;1057;-67
2024/02/29 06:10:46;;;;;;;;;;;0.00;99.90;;;-146.41;100.00;57768.22;5041203;28;1987;-67
2024/02/29 06:13:14;;;;;;;;;;;-0.10;99.90;;;-146.41;100.00;57768.22;5039681;28;1494;-66
2024/02/29 06:15:41;;;;;;;;;;;0.00;99.90;;;-146.41;100.00;57768.22;5040268;28;1189;-67
2024/02/29 06:18:10;;;;;;;;;;;0.10;99.90;;;-146.41;100.00;57768.22;5038765;28;1296;-67
2024/02/29 06:20:37;;;;;;;;;;;0.10;99.90;;;-146.41;100.00;57768.22;5037954;28;1347;-67
2024/02/29 06:23:04;;;;;;;;;;;0.10;99.90;;;-146.41;100.00;57768.22;5039322;28;1275;-66
2024/02/29 06:25:31;;;;;;;;;;;0.00;99.90;;;-146.41;100.00;57768.22;5040502;28;1225;-67
2024/02/29 06:27:58;;;;;;;;;;;0.10;99.90;;;-146.41;100.00;57768.22;5038485;28;1039;-67
2024/02/29 06:30:31;;;;;;;;;;;0.10;99.90;;;-146.41;100.00;57768.22;5036325;28;2027;-66
2024/02/29 06:33:00;;;;;;;;;;;0.20;99.90;;;-146.41;100.00;57768.22;5038134;28;1139;-66
2024/02/29 06:35:27;;;;;;;;;;;0.30;99.90;;;-146.41;100.00;57768.22;5038268;28;1208;-67
2024/02/29 06:37:54;;;;;;;;;;;0.50;99.90;;;-146.41;100.00;57768.22;5035453;28;1011;-66
2024/02/29 06:40:21;;;;;;;;;;;0.60;99.90;;;-146.41;100.00;57768.22;5037854;28;1311;-67
2024/02/29 06:42:48;;;;;;;;;;;0.70;99.90;;;-146.41;100.00;57768.22;5036058;28;1071;-67
2024/02/29 06:45:16;;;;;;;;;;;0.80;99.90;;;-146.41;100.00;57768.22;5037110;28;1067;-67
2024/02/29 06:47:44;;;;;;;;;;;0.90;99.90;;;-146.41;100.00;57768.22;5035857;28;1001;-67
2024/02/29 06:50:11;;;;;;;;;;;0.90;99.90;;;-146.41;100.00;57768.22;5050953;28;1391;-67
2024/02/29 06:52:39;;;;;;;;;;;1.00;99.90;;;-146.41;100.00;57768.22;5036788;28;1918;-67
2024/02/29 06:55:07;;;;;;;;;;;1.10;99.90;;;-146.41;100.00;57768.22;5036737;28;1276;-67
2024/02/29 06:57:35;;;;;;;;;;;1.10;99.90;;;-146.41;100.00;57768.22;5039940;28;1277;-67
2024/02/29 07:00:05;;;;;;;;;;;1.20;99.90;;;-146.41;100.00;57768.22;5042109;28;1351;-67
2024/02/29 07:02:35;;;;;;;;;;;1.20;99.90;;;-146.41;100.00;57768.22;5040121;28;1220;-67
2024/02/29 07:05:01;;;;;;;;;;;1.20;99.90;;;-146.41;100.00;57768.22;5014468;28;1126;-67
2024/02/29 07:07:28;;;;;;;;;;;1.20;99.90;;;-146.41;100.00;57768.22;5028310;28;1051;-67
2024/02/29 07:09:56;;;;;;;;;;;1.30;99.90;;;-146.41;100.00;57768.22;5032839;28;1220;-66
2024/02/29 07:12:23;;;;;;;;;;;1.30;99.90;;;-146.41;100.00;57768.22;5029726;28;1891;-67
2024/02/29 07:14:50;;;;;;;;;;;1.30;99.90;;;-146.41;100.00;57768.22;5032396;28;1080;-67
2024/02/29 07:17:17;;;;;;;;;;;1.10;99.90;;;-146.41;100.00;57768.22;5036876;28;1201;-67
2024/02/29 07:19:44;;;;;;;;;;;0.90;99.90;;;-146.41;100.00;57768.22;5037000;28;1069;-67
2024/02/29 07:22:11;;;;;;;;;;;0.60;99.90;;;-146.41;100.00;57768.22;5033937;28;1304;-67
2024/02/29 07:24:38;;;;;;;;;;;0.50;99.90;;;-146.41;100.00;57768.22;5038535;28;1229;-67
2024/02/29 07:27:04;;;;;;;;;;;0.30;99.90;;;-146.41;100.00;57768.22;5034944;28;1147;-67
2024/02/29 07:29:31;;;;;;;;;;;0.20;99.90;;;-146.41;100.00;57768.22;5033676;28;1206;-67
2024/02/29 07:31:58;;;;;;;;;;;0.30;99.90;;;-146.41;100.00;57768.22;5055680;28;1902;-67
2024/02/29 07:34:25;;;;;;;;;;;0.20;99.90;;;-146.41;100.00;57768.22;5034545;28;1235;-67
2024/02/29 07:36:52;;;;;;;;;;;0.20;99.90;;;-146.41;100.00;57768.22;5035423;28;1105;-67
2024/02/29 07:39:19;;;;;;;;;;;0.20;99.90;;;-146.41;100.00;57768.22;5036926;28;1173;-67
2024/02/29 07:41:46;;;;;;;;;;;0.10;99.90;;;-146.41;100.00;57768.22;5035421;28;1213;-67
2024/02/29 07:44:13;;;;;;;;;;;0.10;99.90;;;-146.41;100.00;57768.22;5031929;28;1114;-67
2024/02/29 07:46:39;;;;;;;;;;;0.10;99.90;;;-146.41;100.00;57768.22;5036338;28;1165;-67
2024/02/29 07:49:06;;;;;;;;;;;0.10;99.90;;;-146.41;100.00;57768.22;5034376;28;1186;-66
2024/02/29 07:51:33;;;;;;;;;;;0.10;99.90;;;-146.41;100.00;57768.22;5035552;28;1906;-67
2024/02/29 07:54:01;;;;;;;;;;;0.30;99.90;;;-146.41;100.00;57768.22;5034645;28;1535;-66
2024/02/29 07:56:28;;;;;;;;;;;0.40;99.90;;;-146.41;100.00;57768.22;5034789;28;1037;-67
2024/02/29 07:58:56;;;;;;;;;;;0.50;99.90;;;-146.41;100.00;57768.22;5034551;28;1084;-66
2024/02/29 08:01:23;;;;;;;;;;;1.00;99.90;;;-146.41;100.00;57768.22;5035235;28;1315;-66
2024/02/29 08:03:49;;;;;;;;;;;1.20;99.90;;;-146.41;100.00;57768.22;5034987;28;1048;-67
2024/02/29 08:06:16;;;;;;;;;;;1.30;99.90;;;-146.41;100.00;57768.22;5037382;28;1216;-66
2024/02/29 08:08:43;;;;;;;;;;;1.70;99.90;;;-146.41;100.00;57768.22;5036898;28;1143;-67
2024/02/29 08:11:10;;;;;;;;;;;1.90;99.90;;;-146.41;100.00;57768.22;5039057;28;1922;-67
2024/02/29 08:13:37;;;;;;;;;;;2.10;99.90;;;-146.41;100.00;57768.22;5038957;28;1315;-66
2024/02/29 08:16:04;;;;;;;;;;;2.20;99.90;;;-146.41;100.00;57768.22;5034790;28;1146;-66
2024/02/29 08:18:33;;;;;;;;;;;2.30;99.90;;;-146.41;100.00;57768.22;5034739;28;1041;-67
2024/02/29 08:21:00;;;;;;;;;;;2.50;99.90;;;-146.41;100.00;57768.22;5033875;28;1335;-66
2024/02/29 08:23:26;;;;;;;;;;;2.70;99.90;;;-146.41;100.00;57768.22;5032570;28;1078;-67
2024/02/29 08:25:53;;;;;;;;;;;2.90;99.90;;;-146.41;100.00;57768.22;5036791;28;1074;-67
2024/02/29 08:28:20;;;;;;;;;;;3.10;99.90;;;-146.41;100.00;57768.22;5040697;28;1319;-67
2024/02/29 08:30:47;;;;;;;;;;;3.30;99.90;;;-146.41;100.00;57768.22;5038398;28;1338;-67
2024/02/29 08:33:14;;;;;;;;;;;3.30;99.90;;;-146.41;100.00;57768.22;5041373;28;1299;-67
2024/02/29 08:35:42;;;;;;;;;;;3.50;99.90;;;-146.41;100.00;57768.22;5038010;28;1185;-67
2024/02/29 08:38:09;;;;;;;;;;;3.60;99.90;;;-146.41;100.00;57768.22;5038486;28;1118;-67
2024/02/29 08:40:36;;;;;;;;;;;3.60;99.90;;;-146.41;100.00;57768.22;5038362;28;1324;-67
2024/02/29 08:43:02;;;;;;;;;;;3.30;99.90;;;-146.41;100.00;57768.22;5038438;28;1763;-67
2024/02/29 08:45:29;;;;;;;;;;;3.20;99.90;;;-146.41;100.00;57768.22;5039774;28;1208;-67
2024/02/29 08:47:56;;;;;;;;;;;3.10;99.90;;;-146.41;100.00;57768.22;5042476;28;1704;-67
2024/02/29 08:50:23;;;;;;;;;;;3.20;99.90;;;-146.41;100.00;57768.22;5035785;28;2016;-67
2024/02/29 08:52:50;;;;;;;;;;;3.10;99.90;;;-146.41;100.00;57768.22;5038418;28;1914;-67
2024/02/29 08:55:17;;;;;;;;;;;2.90;99.90;;;-146.41;100.00;57768.22;5036778;28;1229;-67
2024/02/29 08:57:44;;;;;;;;;;;3.00;99.90;;;-146.41;100.00;57768.22;5040801;28;1292;-66
2024/02/29 09:00:11;;;;;;;;;;;2.90;99.90;;;-146.41;100.00;57768.22;5038374;28;1342;-67
2024/02/29 09:02:38;;;;;;;;;;;2.80;99.90;;;-146.41;100.00;57768.22;5037604;28;1038;-66
2024/02/29 09:05:06;;;;;;;;;;;3.10;99.90;;;-146.41;100.00;57768.22;5037116;28;1465;-67
2024/02/29 09:07:32;;;;;;;;;;;3.40;99.90;;;-146.41;100.00;57768.22;5039424;28;1165;-67
2024/02/29 09:09:59;;;;;;;;;;;3.60;99.90;;;-146.41;100.00;57768.22;5039188;28;1378;-67
2024/02/29 09:12:26;;;;;;;;;;;3.80;99.90;;;-146.41;100.00;57768.22;5037927;28;2010;-67
2024/02/29 09:14:53;;;;;;;;;;;4.10;99.90;;;-146.41;100.00;57768.22;5038635;28;1107;-67
2024/02/29 09:17:20;;;;;;;;;;;4.50;99.90;;;-146.41;100.00;57768.22;5040044;28;1447;-67
2024/02/29 09:19:46;;;;;;;;;;;4.50;99.90;;;-146.41;100.00;57768.22;5037841;28;1125;-67
2024/02/29 09:22:13;;;;;;;;;;;4.80;99.90;;;-146.41;100.00;57768.22;5040120;28;1387;-67
2024/02/29 09:24:40;;;;;;;;;;;5.00;99.90;;;-146.41;100.00;57768.22;5037742;28;1213;-67
2024/02/29 09:27:07;;;;;;;;;;;4.90;99.90;;;-146.41;100.00;57768.22;5041018;28;1243;-67
2024/02/29 09:29:34;;;;;;;;;;;4.70;99.90;;;-146.41;100.00;57768.22;5036484;28;1088;-67
2024/02/29 09:32:02;;;;;;;;;;;4.60;99.90;;;-146.41;100.00;57768.22;5037234;28;1906;-67
2024/02/29 09:34:30;;;;;;;;;;;4.70;99.90;;;-146.41;100.00;57768.22;5036333;28;1311;-67
2024/02/29 09:37:02;;;;;;;;;;;4.60;99.90;;;-146.41;100.00;57768.22;5035289;28;1189;-67
2024/02/29 09:39:29;;;;;;;;;;;4.70;99.90;;;-146.41;100.00;57768.22;5038301;28;1137;-67
2024/02/29 09:41:56;;;;;;;;;;;4.90;99.90;;;-146.41;100.00;57768.22;5040456;28;1391;-67
2024/02/29 09:44:39;;;;;;;;;;;5.20;99.90;;;-146.41;100.00;57768.22;5038554;28;1153;-67
2024/02/29 09:47:07;;;;;;;;;;;5.30;99.90;;;-146.41;100.00;57768.22;5038290;28;1205;-66
2024/02/29 09:49:34;;;;;;;;;;;5.50;99.90;;;-146.41;100.00;57768.22;5036660;28;1014;-67
2024/02/29 09:52:01;;;;;;;;;;;5.70;99.90;;;-146.41;100.00;57768.22;5036119;28;2034;-67
2024/02/29 09:54:30;;;;;;;;;;;5.80;99.90;;;-146.41;100.00;57768.22;5053016;28;1170;-67
2024/02/29 09:56:57;;;;;;;;;;;5.90;99.90;;;-146.41;100.00;57768.22;5038749;28;1016;-67
2024/02/29 09:59:24;;;;;;;;;;;6.00;99.90;;;-146.41;100.00;57768.22;5040140;28;1078;-67
2024/02/29 10:01:52;;;;;;;;;;;6.00;99.90;;;-146.41;100.00;57768.22;5034909;28;2048;-67
2024/02/29 10:04:19;;;;;;;;;;;6.10;99.90;;;-146.41;100.00;57768.22;5038416;28;1211;-67
2024/02/29 10:06:46;;;;;;;;;;;6.10;99.90;;;-146.41;100.00;57768.22;5054694;28;1204;-67
2024/02/29 10:09:13;;;;;;;;;;;6.10;99.90;;;-146.41;100.00;57768.22;5040001;28;1164;-67
2024/02/29 10:11:41;;;;;;;;;;;6.10;99.90;;;-146.41;100.00;57768.22;5038981;28;1907;-67
2024/02/29 10:14:37;;;;;;;;;;;5.80;99.90;;;-146.41;100.00;57768.22;5036420;28;1177;-67
2024/02/29 10:17:04;;;;;;;;;;;5.70;99.90;;;-146.41;100.00;57768.22;5029930;28;1356;-67
2024/02/29 10:19:33;;;;;;;;;;;5.70;99.90;;;-146.41;100.00;57768.22;5040656;28;1312;-67
2024/02/29 10:22:00;;;;;;;;;;;5.80;99.90;;;-146.41;100.00;57768.22;5035377;28;1312;-67
2024/02/29 10:24:27;;;;;;;;;;;5.70;99.90;;;-146.41;100.00;57768.22;5033771;28;1213;-67
2024/02/29 10:27:00;;;;;;;;;;;5.90;99.90;;;-146.41;100.00;57768.22;5040585;28;1546;-67
2024/02/29 10:29:27;;;;;;;;;;;6.00;99.90;;;-146.41;100.00;57768.22;5035080;28;1229;-67
2024/02/29 10:31:56;;;;;;;;;;;6.00;99.90;;;-146.41;100.00;57768.22;5036899;28;2015;-67
2024/02/29 10:34:23;;;;;;;;;;;6.10;99.90;;;-146.41;100.00;57768.22;5036411;28;1216;-67
2024/02/29 10:36:50;;;;;;;;;;;6.30;99.90;;;-146.41;100.00;57768.22;5037993;28;1280;-67
2024/02/29 10:39:17;;;;;;;;;;;6.50;99.90;;;-146.41;100.00;57768.22;5036755;28;1284;-67
2024/02/29 10:41:49;;;;;;;;;;;6.60;99.90;;;-146.41;100.00;57768.22;5037667;28;1438;-67
2024/02/29 10:44:20;;;;;;;;;;;6.60;99.90;;;-146.41;100.00;57768.22;5051127;28;1084;-67
2024/02/29 10:46:49;;;;;;;;;;;6.80;99.90;;;-146.41;100.00;57768.22;5038574;28;1232;-67
2024/02/29 10:49:27;;;;;;;;;;;6.90;99.90;;;-146.41;100.00;57768.22;5035266;28;1433;-67
2024/02/29 10:52:09;;;;;;;;;;;7.00;99.90;;;-146.41;100.00;57768.22;5036877;28;2510;-67
2024/02/29 10:54:46;;;;;;;;;;;7.20;99.90;;;-146.41;100.00;57768.22;5056194;28;1193;-67
2024/02/29 10:57:15;;;;;;;;;;;7.30;99.90;;;-146.41;100.00;57768.22;5042645;28;1272;-67
2024/02/29 10:59:52;;;;;;;;;;;7.20;99.90;;;-146.41;100.00;57768.22;5040447;28;1346;-67
2024/02/29 11:02:19;;;;;;;;;;;7.30;99.90;;;-146.41;100.00;57768.22;5032461;28;1395;-67
2024/02/29 11:04:47;;;;;;;;;;;7.40;99.90;;;-146.41;100.00;57768.22;5036896;28;1139;-67
2024/02/29 11:07:13;;;;;;;;;;;7.50;99.90;;;-146.41;100.00;57768.22;5039537;28;1227;-67
2024/02/29 11:09:40;;;;;;;;;;;7.60;99.90;;;-146.41;100.00;57768.22;5054563;28;1298;-67